Des Moines International Airport
KDSM : now visible

Airfield :











YOU CAN JOIN US ON...

 
LOGIN :

Register | Disclaimer

   EN    FR    IT 

 









Legend :    VFR   Marginal VFR   IFR   Intensive IFR   Very Intensive IFR
Visi :
Ceiling :
>= 8 km
>= 3000ft
5 to 8 km
1000 to 3000 ft
1500m to 5 km
500 to 1000 ft
800 to 1500m
200 to 500 ft
< 800m
< 200 ft
Symbols :   Thunderstorms  Fog  Heavy snow  Heavy precipitations  Wind > 20 kt






- Airport Elevation : 958 ft
- IATA code : DSM


KDSM - Des Moines International

CURRENT METAR :
  • 012254Z 19005KT 10SM FEW200 FEW250 24/16 A3004 RMK AO2 SLP164 T02440161

EXPIRED METARs :
  • 011554Z 07004KT 8SM -RA FEW060 BKN100 OVC120 21/17 A3003 RMK AO2 PRESFR SLP163 CB DSNT E MOV E P0005 T02060172
  • 012154Z VRB03KT 10SM FEW100 BKN180 BKN250 24/16 A3005 RMK AO2 SLP167 T02390156
  • 012054Z 28003KT 10SM FEW020 FEW100 BKN150 BKN200 23/18 A3004 RMK AO2 RAE14 SLP166 P0000 60000 T02280183 58004

TAF KDSM
Valid from the 01 at 18:00 until the 02 at 18:00 UTC


011731Z 0118/0218 34004KT P6SM -RA OVC100
FM012100 34005KT P6SM BKN200
FM021700 17008KT P6SM VCSH BKN150
KZMP FIR / North America



MET'MAP, your aeronautical weather chart ! - Copyright ORBIFLY December 2007 - Disclaimer

ORBIFLY MET'MAP TEAM :

Programming & Development : Alexandra Zaïnal
Original concept : Baudouin d'Aumeries
Technical & hardware support : Manuel Goepfert
Assistance : Marc-Olivier Méhu




SOURCES & CREDITS :

   NOAA       Earth
Advisory